Time;durP1;ratioP1;P1;durP2;ratioP2;P2;SDS_P1;SDS_P2;PMS_P1;PMS_P2;Temp;Humidity;BMP_temperature;BMP_pressure;BME280_temperature;BME280_humidity;BME280_pressure;Samples;Min_cycle;Max_cycle;Signal;HPM_P1;HPM_P2
2023/05/13 00:01:44;;;;;;;9.15;4.35;;;17.40;58.90;;;;;;5071169;28;20119;-71
2023/05/13 00:04:10;;;;;;;7.15;3.70;;;17.40;58.90;;;;;;5065081;28;20391;-71
2023/05/13 00:06:36;;;;;;;7.30;4.32;;;17.40;58.90;;;;;;5068189;28;20031;-71
2023/05/13 00:09:02;;;;;;;7.47;3.78;;;17.40;58.90;;;;;;5067140;28;20482;-71
2023/05/13 00:11:28;;;;;;;7.95;4.53;;;17.30;58.90;;;;;;5073829;28;20127;-71
2023/05/13 00:13:54;;;;;;;6.70;4.05;;;17.30;58.80;;;;;;5071725;28;20123;-71
2023/05/13 00:16:22;;;;;;;7.70;4.35;;;17.30;58.90;;;;;;5069086;28;20024;-71
2023/05/13 00:18:50;;;;;;;7.30;4.07;;;17.30;58.70;;;;;;5054377;28;20024;-71
2023/05/13 00:21:16;;;;;;;6.78;4.10;;;17.30;58.60;;;;;;5074004;28;20035;-71
2023/05/13 00:23:41;;;;;;;10.68;4.20;;;17.20;58.50;;;;;;5071562;28;20568;-71
2023/05/13 00:26:07;;;;;;;8.30;4.50;;;17.20;58.40;;;;;;5073795;28;20032;-71
2023/05/13 00:28:33;;;;;;;6.28;3.75;;;17.20;58.50;;;;;;5070619;28;20032;-71
2023/05/13 00:30:59;;;;;;;6.63;3.88;;;17.20;58.60;;;;;;5066773;28;20021;-71
2023/05/13 00:33:25;;;;;;;7.82;4.05;;;17.20;58.50;;;;;;5061501;28;20385;-71
2023/05/13 00:35:51;;;;;;;8.02;4.18;;;17.10;58.30;;;;;;5059630;28;20032;-71
2023/05/13 00:38:16;;;;;;;8.07;4.10;;;17.10;58.40;;;;;;5068441;28;20402;-71
2023/05/13 00:40:43;;;;;;;8.15;4.22;;;17.10;58.40;;;;;;5070339;28;20099;-71
2023/05/13 00:43:09;;;;;;;8.40;4.40;;;17.10;58.40;;;;;;5074294;28;20357;-71
2023/05/13 00:45:36;;;;;;;7.97;4.18;;;17.10;58.40;;;;;;5071661;28;20029;-71
2023/05/13 00:48:05;;;;;;;7.22;4.30;;;17.00;58.30;;;;;;5070011;28;20047;-71
2023/05/13 00:50:32;;;;;;;8.70;4.20;;;17.00;58.30;;;;;;5060336;28;20196;-71
2023/05/13 00:52:59;;;;;;;7.90;4.88;;;17.00;58.30;;;;;;5074455;28;20123;-71
2023/05/13 00:55:25;;;;;;;9.13;4.80;;;17.00;58.30;;;;;;5055189;28;20041;-71
2023/05/13 00:57:51;;;;;;;9.18;4.63;;;16.90;58.40;;;;;;5071171;28;20415;-71
2023/05/13 01:00:17;;;;;;;7.32;4.22;;;16.90;58.50;;;;;;5069237;28;20116;-71
2023/05/13 01:02:49;;;;;;;7.68;4.32;;;16.90;59.10;;;;;;5067257;28;20866;-71
2023/05/13 01:05:34;;;;;;;9.65;4.55;;;16.90;58.50;;;;;;5070363;28;20120;-71
2023/05/13 01:08:06;;;;;;;7.25;4.35;;;16.90;58.50;;;;;;5063180;28;20021;-71
2023/05/13 01:10:37;;;;;;;9.00;5.15;;;16.80;58.50;;;;;;5072236;28;20032;-71
2023/05/13 01:13:12;;;;;;;10.90;4.80;;;16.80;58.70;;;;;;5068319;28;20162;-71
2023/05/13 01:16:05;;;;;;;8.77;4.53;;;16.80;58.80;;;;;;5068977;28;20056;-71
2023/05/13 01:18:36;;;;;;;6.97;4.22;;;16.80;58.90;;;;;;5057784;28;20461;-71
2023/05/13 01:21:04;;;;;;;7.50;4.70;;;16.70;58.90;;;;;;5072084;28;20111;-71
2023/05/13 01:23:29;;;;;;;8.40;4.25;;;16.70;59.00;;;;;;5059196;28;20028;-71
2023/05/13 01:25:55;;;;;;;9.43;5.18;;;16.70;59.20;;;;;;5072456;28;20078;-71
2023/05/13 01:28:22;;;;;;;9.10;4.88;;;16.60;59.30;;;;;;5071337;28;20062;-71
2023/05/13 01:30:51;;;;;;;7.68;4.70;;;16.60;59.40;;;;;;5072158;28;20115;-71
2023/05/13 01:33:18;;;;;;;9.68;5.35;;;16.60;59.50;;;;;;5060081;28;20640;-71
2023/05/13 01:35:46;;;;;;;8.15;4.45;;;16.50;59.50;;;;;;5053769;28;20017;-71
2023/05/13 01:38:14;;;;;;;9.32;4.80;;;16.50;59.60;;;;;;5072002;28;20351;-71
2023/05/13 01:40:45;;;;;;;9.00;4.97;;;16.50;59.70;;;;;;5063904;28;20025;-71
2023/05/13 01:43:10;;;;;;;8.90;5.10;;;16.50;59.90;;;;;;5071206;28;20115;-71
2023/05/13 01:45:36;;;;;;;8.73;4.65;;;16.50;60.00;;;;;;5072459;28;20100;-71
2023/05/13 01:48:03;;;;;;;8.55;4.75;;;16.40;59.90;;;;;;5069764;28;20020;-71
2023/05/13 01:50:38;;;;;;;8.00;4.97;;;16.40;60.00;;;;;;5070986;28;20120;-71
2023/05/13 01:53:05;;;;;;;7.80;4.70;;;16.40;60.10;;;;;;5068507;28;20296;-71
2023/05/13 01:55:30;;;;;;;7.93;5.05;;;16.30;60.80;;;;;;5063418;28;20078;-71
2023/05/13 01:57:58;;;;;;;7.88;5.03;;;16.30;60.30;;;;;;5054179;28;20028;-71
2023/05/13 02:00:23;;;;;;;8.57;5.38;;;16.30;60.30;;;;;;5066498;28;20128;-71
2023/05/13 02:02:50;;;;;;;8.65;5.10;;;16.30;60.30;;;;;;5050537;28;20032;-71
2023/05/13 02:05:16;;;;;;;9.52;5.40;;;16.30;60.30;;;;;;5072301;28;20063;-71
2023/05/13 02:07:43;;;;;;;9.25;5.70;;;16.20;60.30;;;;;;5066651;28;20108;-71
2023/05/13 02:10:09;;;;;;;9.73;4.88;;;16.20;60.40;;;;;;5068773;28;20456;-71
2023/05/13 02:12:35;;;;;;;8.57;4.63;;;16.20;60.40;;;;;;5060056;28;20037;-71
2023/05/13 02:15:03;;;;;;;9.40;5.40;;;16.20;60.40;;;;;;5068212;28;20044;-71
2023/05/13 02:17:29;;;;;;;8.23;5.22;;;16.20;60.40;;;;;;5052624;28;20341;-71
2023/05/13 02:19:55;;;;;;;10.15;5.22;;;16.20;60.50;;;;;;5065255;28;20029;-71
2023/05/13 02:22:21;;;;;;;8.50;5.47;;;16.20;60.60;;;;;;5069789;28;20028;-71
2023/05/13 02:24:47;;;;;;;9.45;5.25;;;16.10;60.60;;;;;;5067151;28;20104;-71
2023/05/13 02:27:15;;;;;;;9.68;5.45;;;16.10;60.60;;;;;;5065561;28;20024;-71
2023/05/13 02:29:41;;;;;;;8.07;4.78;;;16.10;60.80;;;;;;5065737;28;20024;-71
2023/05/13 02:32:07;;;;;;;7.93;5.00;;;16.00;60.70;;;;;;5062034;28;20053;-71
2023/05/13 02:34:33;;;;;;;13.07;6.03;;;16.00;60.60;;;;;;5070077;28;20424;-71
2023/05/13 02:36:59;;;;;;;7.80;4.97;;;16.00;60.90;;;;;;5064054;28;20032;-71
2023/05/13 02:39:25;;;;;;;8.25;5.03;;;16.00;60.90;;;;;;5066779;28;20029;-71
2023/05/13 02:41:53;;;;;;;8.68;4.90;;;16.00;60.90;;;;;;5054036;28;20339;-71
2023/05/13 02:44:19;;;;;;;8.77;5.20;;;16.00;61.00;;;;;;5069428;28;20089;-71
2023/05/13 02:46:45;;;;;;;10.88;5.80;;;16.00;61.10;;;;;;5066880;28;20050;-71
2023/05/13 02:49:11;;;;;;;8.07;5.60;;;15.90;61.20;;;;;;5050366;28;20104;-71
2023/05/13 02:51:37;;;;;;;8.30;5.70;;;15.90;61.30;;;;;;5053122;28;20035;-71
2023/05/13 02:54:03;;;;;;;8.65;5.82;;;15.90;61.30;;;;;;5055801;28;20406;-71
2023/05/13 02:56:29;;;;;;;8.73;5.30;;;15.90;61.50;;;;;;5061768;28;20100;-70
2023/05/13 02:58:55;;;;;;;8.25;5.10;;;15.90;61.60;;;;;;5065262;28;20090;-70
2023/05/13 03:01:21;;;;;;;8.73;5.88;;;15.80;61.70;;;;;;5069073;28;20449;-70
2023/05/13 03:03:47;;;;;;;9.35;5.95;;;15.80;61.70;;;;;;5064521;28;20025;-71
2023/05/13 03:06:13;;;;;;;9.57;5.90;;;15.80;61.90;;;;;;5066078;28;20102;-71
2023/05/13 03:08:38;;;;;;;8.38;5.25;;;15.80;62.00;;;;;;5065329;28;20031;-67
2023/05/13 03:11:04;;;;;;;9.48;5.93;;;15.80;62.10;;;;;;5050157;28;20059;-67
2023/05/13 03:13:31;;;;;;;9.57;5.43;;;15.70;62.30;;;;;;5062672;28;20020;-68
2023/05/13 03:15:57;;;;;;;12.02;5.85;;;15.70;62.20;;;;;;5067001;28;20114;-67
2023/05/13 03:18:23;;;;;;;9.05;6.07;;;15.70;62.30;;;;;;5065868;28;20028;-67
2023/05/13 03:20:49;;;;;;;8.93;5.85;;;15.70;62.20;;;;;;5069094;28;20025;-67
2023/05/13 03:23:16;;;;;;;9.65;5.82;;;15.70;62.20;;;;;;5069240;28;20021;-67
2023/05/13 03:25:44;;;;;;;10.45;6.47;;;15.70;62.30;;;;;;5070317;28;20108;-67
2023/05/13 03:28:10;;;;;;;9.90;6.35;;;15.60;62.40;;;;;;5068404;28;20108;-67
2023/05/13 03:30:41;;;;;;;9.80;6.15;;;15.60;62.50;;;;;;5062270;28;20017;-67
2023/05/13 03:33:12;;;;;;;9.20;6.13;;;15.60;62.60;;;;;;5067693;28;20453;-67
2023/05/13 03:35:39;;;;;;;9.43;6.40;;;15.60;62.70;;;;;;5053980;28;20052;-67
2023/05/13 03:38:05;;;;;;;10.13;6.38;;;15.50;62.80;;;;;;5064057;28;20406;-67
2023/05/13 03:40:33;;;;;;;11.20;7.28;;;15.50;63.00;;;;;;5070040;28;20104;-67
2023/05/13 03:42:59;;;;;;;11.20;6.95;;;15.50;63.00;;;;;;5069806;28;20540;-67
2023/05/13 03:45:26;;;;;;;8.68;6.43;;;15.50;63.00;;;;;;5076198;28;20115;-67
2023/05/13 03:47:56;;;;;;;10.18;6.53;;;15.40;63.20;;;;;;5052650;28;20048;-67
2023/05/13 03:50:23;;;;;;;9.77;6.53;;;15.40;63.40;;;;;;5069214;28;20086;-67
2023/05/13 03:52:50;;;;;;;11.45;6.88;;;15.40;63.50;;;;;;5071358;28;20032;-67
2023/05/13 03:55:17;;;;;;;9.55;7.18;;;15.40;63.60;;;;;;5065579;28;20178;-67
2023/05/13 03:57:47;;;;;;;9.25;6.60;;;15.30;64.20;;;;;;5071943;28;20211;-67
2023/05/13 04:00:15;;;;;;;10.45;6.78;;;15.40;63.70;;;;;;5056043;28;20017;-67
2023/05/13 04:02:40;;;;;;;9.88;5.75;;;15.30;63.70;;;;;;5072677;28;20029;-68
2023/05/13 04:05:08;;;;;;;12.60;7.00;;;15.30;63.70;;;;;;5069967;28;20024;-67
2023/05/13 04:07:34;;;;;;;10.98;7.18;;;15.30;63.80;;;;;;5066178;28;20017;-67
2023/05/13 04:10:00;;;;;;;12.32;7.68;;;15.30;63.80;;;;;;5070268;28;20067;-67
2023/05/13 04:12:25;;;;;;;10.82;7.38;;;15.30;63.90;;;;;;5055093;28;20047;-67
2023/05/13 04:14:51;;;;;;;9.95;6.47;;;15.30;63.80;;;;;;5071481;28;20040;-67
2023/05/13 04:17:17;;;;;;;10.70;6.95;;;15.30;64.00;;;;;;5053126;28;20033;-67
2023/05/13 04:19:43;;;;;;;10.60;7.03;;;15.30;64.10;;;;;;5068834;28;20032;-67
2023/05/13 04:22:09;;;;;;;10.15;6.85;;;15.30;64.30;;;;;;5063304;28;20021;-67
2023/05/13 04:24:34;;;;;;;10.95;7.30;;;15.20;64.10;;;;;;5071188;28;20467;-67
2023/05/13 04:27:00;;;;;;;11.95;6.80;;;15.30;64.20;;;;;;5067526;28;20032;-67
2023/05/13 04:29:27;;;;;;;9.60;6.88;;;15.30;64.90;;;;;;5044163;28;20032;-67
2023/05/13 04:31:53;;;;;;;12.27;7.25;;;15.20;64.20;;;;;;5064283;28;20040;-67
2023/05/13 04:34:19;;;;;;;10.55;7.45;;;15.30;64.20;;;;;;5061900;28;20504;-67
2023/05/13 04:36:47;;;;;;;10.65;7.10;;;15.30;64.30;;;;;;5066182;28;20134;-67
2023/05/13 04:39:13;;;;;;;10.30;6.68;;;15.30;64.40;;;;;;5070691;28;20036;-67
2023/05/13 04:41:39;;;;;;;10.70;6.78;;;15.30;64.40;;;;;;5054928;28;20356;-67
2023/05/13 04:44:05;;;;;;;12.50;7.22;;;15.30;64.50;;;;;;5070811;28;20042;-67
2023/05/13 04:46:32;;;;;;;9.30;6.85;;;15.30;64.40;;;;;;5070910;28;20032;-67
2023/05/13 04:48:57;;;;;;;12.13;7.28;;;15.30;64.50;;;;;;5068287;28;20023;-67
2023/05/13 04:51:23;;;;;;;13.10;7.00;;;15.30;64.60;;;;;;5073318;28;20028;-67
2023/05/13 04:53:49;;;;;;;11.07;7.13;;;15.30;64.60;;;;;;5057978;28;20434;-67
2023/05/13 04:56:17;;;;;;;12.68;7.63;;;15.30;64.70;;;;;;5069378;28;20457;-67
2023/05/13 04:58:43;;;;;;;12.38;7.10;;;15.30;64.70;;;;;;5063346;28;20028;-67
2023/05/13 05:01:10;;;;;;;10.52;7.45;;;15.30;64.80;;;;;;5052984;28;20039;-66
2023/05/13 05:03:36;;;;;;;10.38;7.30;;;15.20;64.70;;;;;;5062171;28;20108;-67
2023/05/13 05:06:01;;;;;;;11.18;7.03;;;15.30;64.70;;;;;;5067955;28;20418;-67
2023/05/13 05:08:28;;;;;;;11.65;7.70;;;15.30;64.60;;;;;;5073336;28;20085;-66
2023/05/13 05:10:54;;;;;;;9.88;7.03;;;15.30;64.60;;;;;;5053558;28;20381;-66
2023/05/13 05:13:21;;;;;;;12.13;6.90;;;15.40;64.60;;;;;;5081310;28;20081;-66
2023/05/13 05:15:47;;;;;;;11.32;7.32;;;15.40;64.70;;;;;;5074366;28;20139;-66
2023/05/13 05:18:13;;;;;;;10.77;7.75;;;15.50;64.50;;;;;;5074559;28;20032;-66
2023/05/13 05:20:41;;;;;;;9.55;7.07;;;15.60;64.30;;;;;;5073519;28;20063;-68
2023/05/13 05:23:13;;;;;;;10.25;7.18;;;15.90;64.00;;;;;;5073851;28;20057;-66
2023/05/13 05:25:39;;;;;;;11.48;7.72;;;15.90;63.70;;;;;;5075349;28;20065;-66
2023/05/13 05:28:04;;;;;;;9.55;6.97;;;15.90;63.60;;;;;;5073114;28;20029;-66
2023/05/13 05:30:38;;;;;;;11.13;7.63;;;15.90;63.80;;;;;;5074216;28;20121;-66
2023/05/13 05:33:06;;;;;;;11.15;7.22;;;15.80;63.80;;;;;;5074386;28;20384;-66
2023/05/13 05:35:37;;;;;;;10.52;7.20;;;15.80;64.00;;;;;;5050490;28;20036;-68
2023/05/13 05:38:06;;;;;;;11.52;8.07;;;15.70;64.10;;;;;;5053312;28;20036;-66
2023/05/13 05:40:35;;;;;;;13.77;7.68;;;15.70;64.90;;;;;;5053364;28;20033;-66
2023/05/13 05:43:01;;;;;;;11.75;7.07;;;15.80;64.30;;;;;;5070989;28;20390;-66
2023/05/13 05:45:27;;;;;;;12.63;7.88;;;15.90;64.10;;;;;;5072209;28;20093;-66
2023/05/13 05:47:54;;;;;;;10.75;7.50;;;16.10;63.90;;;;;;5068965;28;20063;-66
2023/05/13 05:50:20;;;;;;;10.38;7.30;;;16.20;63.60;;;;;;5066218;28;20039;-68
2023/05/13 05:52:46;;;;;;;10.77;7.22;;;16.40;63.50;;;;;;5073834;28;20032;-68
2023/05/13 05:55:13;;;;;;;12.13;7.30;;;16.50;63.20;;;;;;5065993;28;20124;-66
2023/05/13 05:57:38;;;;;;;9.10;7.13;;;16.70;63.00;;;;;;5072464;28;20116;-66
2023/05/13 06:00:06;;;;;;;10.60;7.28;;;16.90;62.70;;;;;;5062243;28;20021;-66
2023/05/13 06:02:41;;;;;;;10.20;6.82;;;17.10;62.40;;;;;;5068239;28;20046;-65
2023/05/13 06:05:08;;;;;;;9.93;6.80;;;17.30;62.00;;;;;;5061449;28;20037;-64
2023/05/13 06:07:36;;;;;;;10.02;6.68;;;17.40;61.50;;;;;;5062055;28;20016;-64
2023/05/13 06:10:03;;;;;;;9.88;6.82;;;17.30;61.50;;;;;;5065466;28;20021;-64
2023/05/13 06:12:30;;;;;;;11.00;7.03;;;17.20;61.60;;;;;;5072893;28;20051;-67
2023/05/13 06:14:55;;;;;;;10.45;7.55;;;17.10;61.80;;;;;;5066891;28;20041;-64
2023/05/13 06:17:21;;;;;;;9.68;6.82;;;17.10;62.10;;;;;;5067878;28;20089;-65
2023/05/13 06:19:47;;;;;;;9.30;6.82;;;17.30;62.00;;;;;;5071283;28;20377;-64
2023/05/13 06:22:13;;;;;;;9.05;6.65;;;17.30;61.60;;;;;;5072679;28;20025;-67
2023/05/13 06:24:41;;;;;;;10.25;6.35;;;17.30;61.50;;;;;;5069708;28;20025;-67
2023/05/13 06:27:07;;;;;;;12.50;7.32;;;17.30;61.70;;;;;;5053570;28;20024;-67
2023/05/13 06:29:33;;;;;;;10.52;6.72;;;17.30;61.70;;;;;;5071132;28;20047;-67
2023/05/13 06:31:59;;;;;;;10.27;6.38;;;17.50;61.50;;;;;;5064219;28;20441;-67
2023/05/13 06:34:25;;;;;;;10.98;7.10;;;17.80;61.10;;;;;;5069775;28;20017;-66
2023/05/13 06:36:50;;;;;;;9.15;6.38;;;18.10;60.80;;;;;;5060245;28;20392;-66
2023/05/13 06:39:17;;;;;;;9.10;6.50;;;18.40;60.20;;;;;;5063229;28;20021;-64
2023/05/13 06:41:43;;;;;;;9.15;6.03;;;18.70;59.70;;;;;;5069580;28;20104;-64
2023/05/13 06:44:13;;;;;;;10.38;6.82;;;19.00;59.40;;;;;;5063395;28;20023;-64
2023/05/13 06:46:41;;;;;;;9.23;5.97;;;19.20;59.10;;;;;;5072717;28;20025;-64
2023/05/13 06:49:07;;;;;;;9.25;5.80;;;19.40;58.90;;;;;;5068676;28;20029;-67
2023/05/13 06:51:33;;;;;;;11.10;6.50;;;19.60;58.50;;;;;;5068383;28;20035;-65
2023/05/13 06:53:59;;;;;;;8.32;5.55;;;19.70;58.10;;;;;;5070873;28;20103;-65
2023/05/13 06:56:25;;;;;;;9.88;6.25;;;19.90;57.80;;;;;;5072891;28;20393;-67
2023/05/13 06:58:51;;;;;;;9.60;5.53;;;20.10;57.50;;;;;;5072167;28;20036;-64
2023/05/13 07:01:17;;;;;;;11.80;5.70;;;20.20;57.40;;;;;;5059613;28;20104;-65
2023/05/13 07:03:44;;;;;;;8.90;5.82;;;20.40;57.00;;;;;;5069946;28;20017;-64
2023/05/13 07:06:10;;;;;;;9.65;5.45;;;20.50;56.60;;;;;;5063988;28;20361;-65
2023/05/13 07:08:36;;;;;;;8.70;5.93;;;20.70;56.30;;;;;;5067994;28;20033;-64
2023/05/13 07:11:02;;;;;;;8.55;5.63;;;20.80;56.10;;;;;;5066831;28;20035;-64
2023/05/13 07:13:32;;;;;;;8.02;5.43;;;20.90;55.80;;;;;;5060562;28;20378;-66
2023/05/13 07:15:58;;;;;;;8.13;5.40;;;20.90;55.60;;;;;;5059420;28;20052;-69
2023/05/13 07:18:24;;;;;;;8.35;5.63;;;20.70;55.70;;;;;;5064925;28;20032;-69
2023/05/13 07:20:50;;;;;;;10.55;5.70;;;20.70;55.60;;;;;;5056172;28;20091;-69
2023/05/13 07:23:15;;;;;;;9.00;5.57;;;20.90;55.40;;;;;;5077476;28;20110;-69
2023/05/13 07:25:41;;;;;;;8.75;5.70;;;21.10;55.00;;;;;;5058069;28;20134;-69
2023/05/13 07:28:08;;;;;;;12.50;5.70;;;21.30;54.60;;;;;;5076681;28;20033;-68
2023/05/13 07:30:34;;;;;;;8.88;4.93;;;21.50;54.30;;;;;;5076360;28;20024;-69
2023/05/13 07:32:59;;;;;;;9.48;5.28;;;21.70;54.20;;;;;;5077573;28;20028;-69
2023/05/13 07:35:25;;;;;;;9.85;4.82;;;21.80;53.90;;;;;;5075406;28;20074;-69
2023/05/13 07:37:51;;;;;;;10.55;5.15;;;22.00;53.50;;;;;;5076380;28;20299;-69
2023/05/13 07:40:18;;;;;;;8.45;5.00;;;22.10;53.30;;;;;;5076316;28;20032;-66
2023/05/13 07:42:44;;;;;;;9.45;5.18;;;22.20;53.20;;;;;;5077435;28;20028;-66
2023/05/13 07:45:10;;;;;;;8.20;4.30;;;22.40;53.20;;;;;;5058840;28;20085;-66
2023/05/13 07:47:36;;;;;;;7.03;4.43;;;22.50;53.00;;;;;;5076232;28;20051;-67
2023/05/13 07:50:02;;;;;;;7.80;4.25;;;22.70;52.70;;;;;;5077101;28;20499;-69
2023/05/13 07:52:28;;;;;;;8.18;4.40;;;22.80;52.40;;;;;;5065586;28;20084;-66
2023/05/13 07:54:54;;;;;;;10.07;4.30;;;22.90;52.20;;;;;;5071991;28;20051;-66
2023/05/13 07:57:19;;;;;;;8.27;4.20;;;23.10;51.90;;;;;;5073125;28;20052;-66
2023/05/13 07:59:45;;;;;;;8.20;4.03;;;23.20;51.50;;;;;;5074910;28;20079;-66
2023/05/13 08:02:11;;;;;;;8.38;4.35;;;23.30;51.10;;;;;;5071524;28;20040;-67
2023/05/13 08:04:37;;;;;;;7.10;4.07;;;23.40;50.80;;;;;;5075852;28;20099;-67
2023/05/13 08:07:03;;;;;;;7.05;3.83;;;23.60;50.70;;;;;;5061178;28;20434;-67
2023/05/13 08:09:29;;;;;;;6.63;4.00;;;23.60;50.40;;;;;;5075225;28;20039;-67
2023/05/13 08:11:54;;;;;;;6.53;3.70;;;23.70;50.10;;;;;;5074209;28;20039;-67
2023/05/13 08:14:21;;;;;;;6.28;3.78;;;23.80;50.10;;;;;;5062937;28;20357;-68
2023/05/13 08:16:46;;;;;;;5.80;3.47;;;23.90;50.00;;;;;;5067090;28;20045;-67
2023/05/13 08:19:13;;;;;;;7.55;3.38;;;24.00;49.70;;;;;;5050826;28;20028;-68
2023/05/13 08:21:40;;;;;;;8.10;3.63;;;24.20;49.40;;;;;;5064628;28;20083;-67
2023/05/13 08:24:06;;;;;;;6.78;3.67;;;24.20;49.10;;;;;;5070223;28;20477;-67
2023/05/13 08:26:32;;;;;;;6.53;3.25;;;24.30;48.90;;;;;;5056210;28;20408;-67
2023/05/13 08:28:58;;;;;;;7.68;3.30;;;24.50;48.70;;;;;;5062798;28;20094;-67
2023/05/13 08:31:24;;;;;;;8.38;3.17;;;24.50;48.50;;;;;;5055627;28;20079;-67
2023/05/13 08:33:52;;;;;;;6.38;3.50;;;24.50;48.40;;;;;;5069363;28;20037;-66
2023/05/13 08:36:18;;;;;;;7.82;4.03;;;24.60;48.40;;;;;;5056653;28;20036;-67
2023/05/13 08:38:44;;;;;;;6.03;3.33;;;24.60;48.20;;;;;;5062862;28;20024;-67
2023/05/13 08:41:13;;;;;;;6.60;3.50;;;24.70;48.10;;;;;;5064294;28;20495;-67
2023/05/13 08:43:41;;;;;;;6.85;3.15;;;24.90;47.70;;;;;;5066257;28;20356;-67
2023/05/13 08:46:11;;;;;;;7.85;3.22;;;25.00;47.40;;;;;;5065760;28;20025;-67
2023/05/13 08:48:41;;;;;;;7.75;3.30;;;25.10;47.10;;;;;;5066199;28;20338;-67
2023/05/13 08:51:08;;;;;;;6.20;3.30;;;25.20;46.80;;;;;;5060429;28;20025;-67
2023/05/13 08:53:35;;;;;;;5.85;3.15;;;25.30;46.70;;;;;;5060799;28;20029;-67
2023/05/13 08:56:01;;;;;;;7.25;2.92;;;25.40;46.60;;;;;;5061580;28;20040;-67
2023/05/13 08:58:27;;;;;;;6.88;3.00;;;25.50;46.20;;;;;;5063132;28;20394;-67
2023/05/13 09:00:53;;;;;;;6.00;3.20;;;25.60;45.80;;;;;;5065553;28;20052;-67
2023/05/13 09:03:20;;;;;;;8.18;3.22;;;25.70;45.40;;;;;;5071427;28;20421;-67
2023/05/13 09:05:46;;;;;;;5.90;3.13;;;25.80;45.30;;;;;;5070852;28;20029;-67
2023/05/13 09:08:12;;;;;;;6.97;2.92;;;25.90;45.20;;;;;;5073321;28;20028;-67
2023/05/13 09:10:38;;;;;;;6.72;2.95;;;26.00;44.90;;;;;;5069111;28;20324;-68
2023/05/13 09:13:04;;;;;;;6.78;2.95;;;26.00;45.30;;;;;;5069803;28;20206;-67
2023/05/13 09:15:31;;;;;;;8.63;3.20;;;26.20;44.50;;;;;;5070368;28;20052;-68
2023/05/13 09:18:01;;;;;;;5.57;2.97;;;26.20;44.10;;;;;;5056216;28;20024;-67
2023/05/13 09:20:27;;;;;;;6.45;3.00;;;26.30;43.80;;;;;;5056703;28;20415;-67
2023/05/13 09:22:56;;;;;;;5.70;3.10;;;26.30;43.40;;;;;;5057853;28;20035;-68
2023/05/13 09:25:25;;;;;;;6.65;3.28;;;26.30;43.20;;;;;;5055899;28;20017;-68
2023/05/13 09:31:38;;;;;;;7.93;2.83;;;26.40;43.20;;;;;;5065175;28;20036;-68
2023/05/13 09:34:04;;;;;;;6.18;3.25;;;26.50;43.20;;;;;;5068338;28;20028;-67
2023/05/13 09:36:31;;;;;;;5.80;3.05;;;26.60;42.90;;;;;;5060924;28;20017;-68
2023/05/13 09:38:57;;;;;;;6.30;2.97;;;26.70;42.80;;;;;;5058189;28;20037;-68
2023/05/13 09:41:27;;;;;;;7.20;3.22;;;26.80;42.90;;;;;;5059124;28;20086;-68
2023/05/13 09:43:53;;;;;;;5.50;2.45;;;26.90;42.70;;;;;;5060881;28;20104;-68
2023/05/13 09:46:20;;;;;;;7.38;3.03;;;26.90;42.40;;;;;;5056306;28;20086;-68
2023/05/13 09:48:46;;;;;;;5.70;2.75;;;27.00;41.90;;;;;;5058944;28;20025;-68
2023/05/13 09:51:14;;;;;;;7.43;3.00;;;27.00;41.80;;;;;;5062746;28;20036;-68
2023/05/13 09:53:40;;;;;;;5.28;2.97;;;27.00;41.90;;;;;;5060711;28;20046;-68
2023/05/13 09:56:09;;;;;;;6.10;3.00;;;27.10;41.80;;;;;;5074049;28;20024;-67
2023/05/13 09:58:34;;;;;;;6.97;2.85;;;27.10;41.60;;;;;;5056598;28;20035;-67
2023/05/13 10:01:01;;;;;;;6.15;2.85;;;27.10;41.70;;;;;;5068865;28;20028;-68
2023/05/13 10:04:11;;;;;;;7.43;2.90;;;27.20;41.80;;;;;;5054615;28;20025;-67
2023/05/13 10:06:37;;;;;;;5.40;2.55;;;27.30;41.90;;;;;;5063933;28;20032;-68
2023/05/13 10:09:06;;;;;;;5.65;2.80;;;27.30;41.50;;;;;;5069062;28;20036;-67
2023/05/13 10:11:34;;;;;;;6.35;3.00;;;27.30;41.00;;;;;;5066918;28;20086;-68
2023/05/13 10:14:04;;;;;;;6.40;2.78;;;27.40;40.80;;;;;;5068343;28;20078;-67
2023/05/13 10:16:31;;;;;;;6.30;3.08;;;27.40;40.70;;;;;;5063841;28;20036;-67
2023/05/13 10:18:58;;;;;;;6.88;2.70;;;27.40;40.90;;;;;;5068389;28;20450;-67
2023/05/13 10:21:27;;;;;;;6.35;2.92;;;27.50;40.70;;;;;;5074187;28;20016;-68
2023/05/13 10:23:53;;;;;;;6.47;2.85;;;27.50;40.00;;;;;;5072639;28;20013;-68
2023/05/13 10:26:22;;;;;;;6.32;2.60;;;27.40;40.00;;;;;;5070857;28;20339;-68
2023/05/13 10:28:49;;;;;;;6.85;2.78;;;27.50;40.30;;;;;;5068247;28;20032;-69
2023/05/13 10:31:17;;;;;;;6.05;2.97;;;27.60;40.50;;;;;;5072373;28;20344;-69
2023/05/13 10:33:44;;;;;;;5.68;2.65;;;27.60;40.40;;;;;;5073136;28;20101;-68
2023/05/13 10:36:48;;;;;;;7.32;2.88;;;27.60;40.00;;;;;;5068128;28;20074;-68
2023/05/13 10:39:28;;;;;;;5.13;2.42;;;27.60;39.90;;;;;;4969025;28;20030;-68
2023/05/13 10:42:28;;;;;;;5.35;3.10;;;27.70;40.10;;;;;;5076327;28;20037;-68
2023/05/13 10:44:54;;;;;;;7.22;2.50;;;27.70;39.60;;;;;;5073061;28;20063;-69
2023/05/13 10:47:20;;;;;;;6.03;2.80;;;27.80;39.30;;;;;;5062264;28;20068;-68
2023/05/13 10:49:55;;;;;;;6.10;2.58;;;27.70;39.00;;;;;;5056247;28;20033;-69
2023/05/13 10:52:20;;;;;;;8.13;3.00;;;27.70;39.00;;;;;;5057783;28;20094;-68
2023/05/13 10:55:01;;;;;;;6.03;2.67;;;27.70;38.20;;;;;;5070616;28;20044;-68
2023/05/13 10:57:36;;;;;;;6.88;2.95;;;27.70;37.50;;;;;;5077004;28;20090;-68
2023/05/13 11:00:14;;;;;;;6.55;2.60;;;27.60;37.60;;;;;;5074957;28;20040;-68
2023/05/13 11:02:40;;;;;;;6.63;2.97;;;27.60;37.50;;;;;;5077091;28;20128;-68
2023/05/13 11:05:06;;;;;;;5.60;2.63;;;27.60;37.60;;;;;;5077110;28;20111;-68
2023/05/13 11:07:37;;;;;;;6.63;2.75;;;27.60;37.70;;;;;;5076944;28;20024;-68
2023/05/13 11:10:03;;;;;;;;;;;27.60;37.60;;;;;;5076574;28;20036;-69
2023/05/13 11:12:29;;;;;;;6.55;3.00;;;27.70;38.10;;;;;;5078068;28;20538;-68
2023/05/13 11:14:55;;;;;;;7.05;3.15;;;27.70;37.70;;;;;;5077751;28;20066;-69
2023/05/13 11:17:21;;;;;;;6.43;2.90;;;27.70;37.20;;;;;;5077783;28;20441;-68
2023/05/13 11:19:49;;;;;;;6.22;3.10;;;27.60;37.10;;;;;;5076792;28;20028;-69
2023/05/13 11:22:22;;;;;;;7.90;3.30;;;27.60;37.10;;;;;;5076710;28;20457;-69
2023/05/13 11:25:08;;;;;;;5.68;2.67;;;27.70;37.30;;;;;;5077840;28;20021;-69
2023/05/13 11:27:41;;;;;;;6.82;2.60;;;27.70;37.60;;;;;;5076483;28;20433;-69
2023/05/13 11:30:26;;;;;;;5.80;2.63;;;27.70;37.30;;;;;;5075671;28;20051;-68
2023/05/13 11:32:52;;;;;;;5.80;2.45;;;27.70;36.70;;;;;;5076677;28;20062;-68
2023/05/13 11:35:23;;;;;;;4.85;2.50;;;27.80;36.60;;;;;;5077186;28;20062;-69
2023/05/13 11:37:49;;;;;;;6.25;2.95;;;27.90;36.50;;;;;;5077356;28;20421;-69
2023/05/13 11:40:22;;;;;;;5.65;2.67;;;27.80;36.70;;;;;;5068169;28;20048;-69
2023/05/13 11:42:48;;;;;;;5.82;3.03;;;27.60;36.70;;;;;;5077380;28;20055;-68
2023/05/13 11:45:20;;;;;;;6.22;3.10;;;27.60;37.00;;;;;;5076156;28;20046;-68
2023/05/13 11:47:46;;;;;;;6.47;3.05;;;27.50;36.60;;;;;;5077668;28;20438;-68
2023/05/13 11:50:29;;;;;;;8.02;2.80;;;27.50;36.60;;;;;;5068975;28;20029;-68
2023/05/13 11:52:57;;;;;;;5.22;2.78;;;27.10;36.50;;;;;;5075298;28;20066;-68
2023/05/13 11:55:34;;;;;;;4.53;2.67;;;27.00;36.40;;;;;;5058986;28;20028;-69
2023/05/13 11:58:01;;;;;;;5.45;2.63;;;26.90;35.90;;;;;;5074216;28;20040;-69
2023/05/13 12:00:29;;;;;;;6.40;3.15;;;26.90;36.30;;;;;;5056682;28;20442;-69
2023/05/13 12:02:55;;;;;;;5.75;2.97;;;26.80;36.30;;;;;;5080898;28;20040;-69
2023/05/13 12:05:22;;;;;;;5.95;3.03;;;26.60;36.20;;;;;;5070195;28;20032;-68
2023/05/13 12:07:48;;;;;;;5.50;2.85;;;26.40;36.30;;;;;;5071499;28;20048;-68
2023/05/13 12:10:14;;;;;;;6.07;2.63;;;26.40;36.40;;;;;;5087745;28;20042;-68
2023/05/13 12:12:42;;;;;;;5.95;2.60;;;26.50;36.50;;;;;;5056461;28;20027;-68
2023/05/13 12:15:15;;;;;;;5.97;2.88;;;26.50;36.30;;;;;;5063011;28;20079;-68
2023/05/13 12:17:41;;;;;;;5.97;2.90;;;26.60;36.60;;;;;;5048471;28;20394;-68
2023/05/13 12:20:12;;;;;;;5.78;2.90;;;26.60;36.90;;;;;;5073977;28;20028;-68
2023/05/13 12:22:44;;;;;;;5.95;2.95;;;26.50;37.50;;;;;;5062529;28;20032;-68
2023/05/13 12:25:35;;;;;;;6.93;3.00;;;26.40;37.70;;;;;;5078415;28;20017;-68
2023/05/13 12:28:28;;;;;;;5.65;2.80;;;26.40;37.60;;;;;;5066830;28;20353;-68
2023/05/13 12:30:58;;;;;;;5.70;2.97;;;26.40;37.60;;;;;;5084436;28;20063;-68
2023/05/13 12:33:24;;;;;;;6.13;2.47;;;26.30;37.30;;;;;;5088231;28;20059;-69
2023/05/13 12:35:53;;;;;;;6.95;2.85;;;26.30;37.40;;;;;;5068155;28;20088;-68
2023/05/13 12:38:23;;;;;;;6.00;2.78;;;26.30;37.60;;;;;;5069236;28;20111;-69
2023/05/13 12:40:50;;;;;;;7.20;3.00;;;26.30;37.80;;;;;;5071839;28;20032;-68
2023/05/13 12:43:18;;;;;;;5.50;2.97;;;26.10;37.90;;;;;;5074454;28;20385;-68
2023/05/13 12:45:45;;;;;;;5.35;2.55;;;25.80;37.80;;;;;;5068074;28;21447;-67
2023/05/13 12:48:13;;;;;;;6.28;2.83;;;25.60;37.40;;;;;;5065452;28;20524;-67
2023/05/13 12:50:39;;;;;;;7.68;3.55;;;25.50;37.20;;;;;;5050342;28;20029;-67
2023/05/13 12:53:05;;;;;;;5.95;2.75;;;25.40;37.20;;;;;;5069345;28;20021;-70